Latest Weather Observations for Bathurst Airport

IDN60801

Issued at 5:52 am EST Monday 6 April 2020 (issued every 10 minutes, with the page automatically refreshed every 10 minutes)

About weather observations | Map of weather stations | Latest weather observations for NSW | Other Formats
Station Details ID: 063291 Name: BATHURST AIRPORT AWS Lat: -33.41 Lon: 149.65 Height: 744.5 m
Data from the previous 72 hours. | See also: Recent months at Bathurst Airport
Date/Time
EST
Temp
°C
App
Temp
°C
Dew
Point
°C
Rel
Hum
%
Delta-T
°C
Wind Press
QNH
hPa
Press
MSL
hPa
Rain since
9am
mm
Dir  Spd
km/h
Gust
km/h
Spd
kts
Gust
kts
06/05:30am 8.4 5.2 8.3 99 0.1 WSW 15 17 8 9 1019.3 1017.8 0.0
06/05:00am 8.4 5.5 8.0 97 0.2 W 13 15 7 8 1019.2 1017.7 0.0
06/04:30am 9.1 6.8 7.5 90 0.8 W 9 11 5 6 1019.1 1017.6 0.0
06/04:00am 9.3 7.6 7.6 89 0.8 WSW 6 7 3 4 1019.0 1017.5 0.0
06/03:30am 10.3 9.8 7.9 85 1.2 CALM 0 6 0 3 1018.9 1017.4 0.0
06/03:00am 10.5 9.6 9.1 91 0.7 NNW 4 7 2 4 1019.0 1017.5 0.0
06/02:30am 10.7 10.5 9.1 90 0.8 CALM 0 0 0 0 1019.1 1017.6 0.0
06/02:00am 10.7 9.6 8.6 87 1.1 WNW 4 6 2 3 1019.2 1017.7 0.0
06/01:30am 10.7 9.2 8.6 87 1.1 WNW 6 7 3 4 1019.4 1017.9 0.0
06/01:00am 10.8 9.2 8.9 88 1.0 WNW 7 9 4 5 1019.4 1017.9 0.0
06/12:30am 10.8 9.3 9.1 89 0.9 NNW 7 9 4 5 1019.4 1017.9 0.0
06/12:00am 10.8 9.3 9.2 90 0.8 NNW 7 9 4 5 1019.4 1017.9 0.0
 
Date/Time
EST
Temp
°C
App
Temp
°C
Dew
Point
°C
Rel
Hum
%
Delta-T
°C
Wind Press
QNH
hPa
Press
MSL
hPa
Rain since
9am
mm
Dir  Spd
km/h
Gust
km/h
Spd
kts
Gust
kts
05/11:30pm 10.7 8.9 9.3 91 0.7 N 9 11 5 6 1019.4 1017.9 0.0
05/11:00pm 10.8 9.4 9.6 92 0.6 N 7 9 4 5 1019.5 1018.0 0.0
05/10:30pm 10.9 9.7 9.7 92 0.6 N 6 7 3 4 1019.5 1018.0 0.0
05/10:00pm 11.0 10.0 8.9 87 1.1 WNW 4 6 2 3 1019.5 1018.0 0.0
05/09:30pm 11.1 10.7 8.3 83 1.4 CALM 0 7 0 4 1019.4 1017.9 0.0
05/09:00pm 10.9 9.7 9.7 92 0.6 SW 6 6 3 3 1019.2 1017.7 0.0
05/08:30pm 11.1 10.8 8.8 86 1.2 CALM 0 0 0 0 1019.1 1017.6 0.0
05/08:00pm 11.1 10.0 8.5 84 1.3 SW 4 7 2 4 1018.9 1017.4 0.0
05/07:30pm 11.4 9.8 8.6 83 1.4 SW 7 9 4 5 1018.5 1017.0 0.0
05/07:00pm 11.5 9.1 7.2 75 2.1 WSW 9 13 5 7 1018.0 1016.5 0.0
05/06:30pm 12.1 9.0 7.2 72 2.5 WSW 13 15 7 8 1017.3 1015.8 0.0
05/06:00pm 12.9 8.9 6.5 65 3.2 WSW 17 20 9 11 1017.0 1015.5 0.0
05/05:30pm 13.7 9.7 6.6 62 3.6 W 17 24 9 13 1016.7 1015.2 0.0
05/05:00pm 13.9 8.8 6.0 59 3.9 WNW 22 30 12 16 1016.4 1014.9 0.0
05/04:30pm 15.2 10.1 6.0 54 4.6 WNW 22 32 12 17 1016.1 1014.5 0.0
05/04:00pm 16.0 10.9 5.9 51 5.1 WNW 22 32 12 17 1015.7 1014.2 0.0
05/03:30pm 16.1 10.6 5.7 50 5.2 WNW 24 32 13 17 1015.7 1014.2 0.0
05/03:00pm 16.7 11.2 5.9 49 5.4 WNW 24 35 13 19 1015.8 1014.3 0.0
05/02:30pm 17.4 12.8 8.0 54 5.0 WNW 22 32 12 17 1015.8 1014.3 0.0
05/02:00pm 17.1 12.2 6.9 51 5.3 WNW 22 32 12 17 1015.9 1014.4 0.0
05/01:30pm 16.5 11.0 5.8 49 5.4 WNW 24 33 13 18 1016.1 1014.5 0.0
05/01:00pm 16.9 12.0 7.0 52 5.1 WNW 22 32 12 17 1016.5 1015.0 0.0
05/12:30pm 16.3 11.0 7.0 54 4.8 WNW 24 32 13 17 1016.7 1015.2 0.0
05/12:00pm 15.7 9.5 6.2 53 4.8 W 28 37 15 20 1016.9 1015.4 0.0
05/11:30am 15.4 10.0 6.2 54 4.6 WNW 24 32 13 17 1017.3 1015.8 0.0
05/11:00am 14.4 8.0 5.2 54 4.5 W 28 39 15 21 1017.6 1016.1 0.0
05/10:30am 14.2 8.8 6.3 59 4.0 W 24 33 13 18 1017.5 1015.9 0.0
05/10:00am 12.7 7.3 6.3 65 3.2 WSW 24 30 13 16 1017.6 1016.1 0.0
05/09:30am 12.5 8.9 8.2 75 2.2 NW 17 22 9 12 1017.6 1016.1 0.0
05/09:00am 11.3 7.7 8.2 81 1.6 NW 17 24 9 13 1017.6 1016.1 0.0
05/08:30am 11.0 7.0 8.1 82 1.5 NW 19 24 10 13 1017.3 1015.8 0.0
05/08:00am 10.9 7.8 8.8 87 1.1 NW 15 20 8 11 1017.0 1015.5 0.0
05/07:30am 8.8 6.4 8.7 99 0.1 NNW 11 15 6 8 1016.5 1015.0 0.0
05/07:00am 8.1 4.8 8.0 99 0.0 NNW 15 24 8 13 1016.1 1014.5 0.0
05/06:30am 7.6 4.9 7.5 99 0.0 NNW 11 13 6 7 1015.7 1014.2 0.0
05/06:00am 7.8 5.2 7.7 99 0.0 NNW 11 13 6 7 1015.3 1013.8 0.0
05/05:30am 6.9 3.6 6.6 98 0.1 N 13 13 7 7 1014.8 1013.2 0.0
05/05:00am 7.6 5.2 7.2 97 0.2 N 9 11 5 6 1014.3 1012.8 0.0
05/04:30am 7.1 4.9 6.4 95 0.3 NW 7 13 4 7 1014.2 1012.7 0.0
05/04:00am 8.1 4.9 6.9 92 0.6 W 13 17 7 9 1013.8 1012.2 0.0
05/03:30am 8.2 4.5 6.3 88 0.9 W 15 20 8 11 1013.6 1012.0 0.0
05/03:00am 8.8 4.4 6.4 85 1.2 W 19 26 10 14 1013.5 1011.9 0.0
05/03:30am 9.0 4.4 6.4 84 1.3 W 20 26 11 14 1013.6 1012.0 0.0
05/03:00am 8.6 4.6 6.6 87 1.0 W 17 24 9 13 1013.8 1012.2 0.0
05/02:30am 8.9 4.6 7.0 88 0.9 W 19 22 10 12 1014.0 1012.5 0.0
05/02:00am 8.7 4.4 7.0 89 0.8 WNW 19 24 10 13 1014.0 1012.5 0.0
05/01:30am 8.9 4.6 7.2 89 0.8 W 19 22 10 12 1014.0 1012.5 0.0
05/01:00am 9.4 4.6 7.3 87 1.0 W 22 28 12 15 1013.9 1012.3 0.0
05/12:30am 9.0 5.2 7.6 91 0.7 W 17 26 9 14 1014.2 1012.7 0.0
05/12:00am 7.8 5.0 7.1 95 0.3 WNW 11 15 6 8 1013.9 1012.3 0.0
 
Date/Time
EST
Temp
°C
App
Temp
°C
Dew
Point
°C
Rel
Hum
%
Delta-T
°C
Wind Press
QNH
hPa
Press
MSL
hPa
Rain since
9am
mm
Dir  Spd
km/h
Gust
km/h
Spd
kts
Gust
kts
04/11:30pm 8.3 5.6 7.5 95 0.4 WNW 11 15 6 8 1014.0 1012.5 0.0
04/11:00pm 8.3 5.6 7.2 93 0.5 WNW 11 13 6 7 1013.8 1012.2 0.0
04/10:30pm 9.0 6.0 7.5 90 0.7 WNW 13 17 7 9 1013.7 1012.1 0.0
04/10:00pm 9.6 6.5 7.2 85 1.2 WNW 13 20 7 11 1013.6 1012.0 0.0
04/09:30pm 10.3 7.1 7.0 80 1.6 NNW 13 19 7 10 1013.0 1011.5 0.0
04/09:00pm 11.3 7.5 7.6 78 1.9 NW 17 22 9 12 1012.8 1011.3 0.0
04/08:30pm 12.0 6.4 7.3 73 2.4 NW 26 39 14 21 1012.3 1010.7 0.0
04/08:00pm 12.1 9.0 7.4 73 2.4 NW 13 17 7 9 1011.8 1010.2 0.0
04/07:30pm 12.1 7.5 6.6 69 2.7 WNW 20 30 11 16 1011.2 1009.6 0.0
04/07:00pm 12.7 7.2 6.1 64 3.3 WNW 24 32 13 17 1010.6 1009.0 0.0
04/06:30pm 12.9 7.1 6.3 64 3.3 WNW 26 37 14 20 1010.0 1008.4 0.0
04/06:00pm 13.2 7.1 6.5 64 3.4 WNW 28 37 15 20 1009.4 1007.8 0.0
04/05:30pm 14.0 7.9 6.4 60 3.8 WNW 28 37 15 20 1009.0 1007.3 0.0
04/05:00pm 14.5 8.7 6.3 58 4.1 WNW 26 39 14 21 1008.3 1006.7 0.0
04/04:30pm 15.5 8.6 6.5 55 4.6 WNW 32 43 17 23 1007.9 1006.2 0.0
04/04:00pm 14.5 6.1 5.8 56 4.3 WNW 39 48 21 26 1007.9 1006.2 0.0
04/03:34pm 14.7 8.6 6.8 59 4.0 W 28 46 15 25 1007.5 1005.8 0.0
04/03:30pm 15.1 9.2 7.4 60 4.0 W 28 35 15 19 1007.5 1005.8 0.0
04/03:00pm 16.2 8.9 7.2 55 4.7 WNW 35 44 19 24 1007.0 1005.4 0.0
04/02:30pm 15.0 7.8 6.0 55 4.5 WNW 33 43 18 23 1006.9 1005.2 0.0
04/02:00pm 15.6 9.8 8.1 61 3.9 WNW 28 46 15 25 1006.7 1005.0 0.0
04/01:58pm 15.2 9.3 7.3 59 4.1 WNW 28 46 15 25 1006.7 1005.0 0.0
04/01:30pm 15.3 9.3 8.5 64 3.6 WNW 30 41 16 22 1006.8 1005.1 0.0
04/01:00pm 15.8 10.0 7.8 59 4.2 WNW 28 39 15 21 1006.5 1004.8 0.0
04/12:30pm 15.7 9.5 8.0 60 4.0 W 30 39 16 21 1006.7 1005.0 0.0
04/12:00pm 14.7 8.8 9.1 69 3.0 W 30 39 16 21 1006.7 1005.0 0.0
04/11:31am 14.0 6.6 9.8 76 2.3 WSW 39 57 21 31 1006.6 1004.9 0.0
04/11:30am 14.3 6.6 10.3 77 2.2 WSW 41 57 22 31 1006.6 1004.9 0.0
04/11:21am 14.0 7.5 10.2 78 2.1 W 35 56 19 30 1006.3 1004.6 0.0
04/11:00am 15.5 9.5 8.5 63 3.7 W 30 41 16 22 1005.7 1004.0 0.0
04/10:30am 15.4 9.2 10.0 70 2.9 W 33 46 18 25 1005.2 1003.5 0.0
04/10:00am 15.6 10.3 12.4 81 1.8 W 32 48 17 26 1005.0 1003.3 0.0
04/09:54am 15.5 10.9 12.3 81 1.8 W 28 46 15 25 1004.9 1003.2 0.0
04/09:30am 15.6 12.6 14.8 95 0.5 WNW 24 33 13 18 1004.6 1002.8 0.0
04/09:00am 14.7 13.7 14.7 100 0.0 NW 13 22 7 12 1004.1 1002.4 40.4
04/08:46am 14.1 12.2 14.1 100 0.0 WNW 17 24 9 13 1003.6 1001.9 40.4
04/08:44am 14.0 11.7 14.0 100 0.0 WNW 19 26 10 14 1003.5 1001.8 40.4
04/08:30am 13.8 10.1 13.8 100 0.0 WSW 26 39 14 21 1003.2 1001.4 40.0
04/08:26am 13.7 10.7 13.7 100 0.0 WSW 22 39 12 21 1002.9 1001.2 39.6
04/08:14am 14.3 14.3 14.3 100 0.0 W 7 15 4 8 1002.5 1000.8 31.8
04/08:00am 14.2 14.2 14.2 100 0.0 W 7 9 4 5 1002.3 1000.6 30.8
04/07:48am 14.1 14.3 14.1 100 0.0 NW 6 9 3 5 1002.2 1000.4 30.8
04/07:30am 13.9 13.1 13.9 100 0.0 NNW 11 13 6 7 1002.3 1000.6 30.8
04/07:00am 14.2 12.3 14.2 100 0.0 NW 17 24 9 13 1002.0 1000.2 29.8
04/06:54am 14.2 11.9 14.2 100 0.0 WNW 19 28 10 15 1001.8 1000.0 29.4
04/06:53am 14.2 11.7 14.2 100 0.0 WNW 20 28 11 15 1001.7 999.9 29.4
04/06:30am 15.4 13.6 15.4 100 0.0 WNW 19 30 10 16 1001.7 999.9 25.8
04/06:15am 16.0 13.8 16.0 100 0.0 NW 22 32 12 17 1001.0 999.2 23.2
04/06:13am 16.1 14.0 16.1 100 0.0 NW 22 32 12 17 1001.0 999.2 22.8
04/06:00am 16.3 13.9 16.3 100 0.0 NNW 24 39 13 21 1001.2 999.5 20.8
04/05:59am 16.3 14.2 16.3 100 0.0 NNW 22 35 12 19 1001.2 999.5 20.8
04/05:30am 16.4 14.4 16.4 100 0.0 N 22 28 12 15 1000.8 999.0 17.6
04/05:04am 16.4 14.8 16.4 100 0.0 N 20 26 11 14 1000.3 998.5 16.2
04/05:00am 16.5 14.9 16.5 100 0.0 N 20 26 11 14 1000.3 998.5 16.0
04/04:44am 16.6 15.0 16.6 100 0.0 N 20 28 11 15 1000.8 999.0 15.6
04/04:30am 16.7 14.0 16.7 100 0.0 N 26 32 14 17 1000.8 999.0 15.4
04/04:00am 16.9 14.3 16.9 100 0.0 N 26 32 14 17 1000.9 999.1 14.0
04/03:30am 17.0 14.8 17.0 100 0.0 N 24 30 13 16 1001.1 999.4 13.6
04/03:14am 16.8 15.3 16.8 100 0.0 N 20 26 11 14 1001.3 999.6 13.6
04/03:05am 16.8 15.3 16.8 100 0.0 N 20 26 11 14 1001.7 999.9 13.6
04/03:00am 16.7 14.8 16.7 100 0.0 N 22 28 12 15 1002.0 1000.2 13.4
04/02:51am 17.0 14.8 17.0 100 0.0 N 24 30 13 16 1002.3 1000.6 12.4
04/02:30am 17.2 15.5 17.2 100 0.0 N 22 33 12 18 1002.7 1001.0 12.4
04/02:04am 17.4 14.6 17.4 100 0.0 N 28 35 15 19 1002.9 1001.2 12.4
04/02:00am 17.3 14.1 17.3 100 0.0 N 30 35 16 19 1002.9 1001.2 12.4
04/01:54am 17.4 14.6 17.4 100 0.0 N 28 35 15 19 1002.9 1001.2 12.4
04/01:52am 17.3 14.9 17.3 100 0.0 N 26 35 14 19 1002.9 1001.2 12.4
04/01:30am 17.0 16.2 17.0 100 0.0 N 17 26 9 14 1003.4 1001.6 12.4
04/01:00am 16.4 16.1 16.4 100 0.0 N 13 17 7 9 1004.0 1002.3 12.4
04/12:30am 16.8 15.5 16.8 100 0.0 NNW 19 24 10 13 1004.7 1003.0 11.8
04/12:00am 16.9 15.6 16.9 100 0.0 NNW 19 24 10 13 1005.1 1003.4 11.8
 
Date/Time
EST
Temp
°C
App
Temp
°C
Dew
Point
°C
Rel
Hum
%
Delta-T
°C
Wind Press
QNH
hPa
Press
MSL
hPa
Rain since
9am
mm
Dir  Spd
km/h
Gust
km/h
Spd
kts
Gust
kts
03/11:30pm 16.8 15.3 16.8 100 0.0 NNW 20 24 11 13 1005.7 1004.0 11.8
03/11:09pm 16.8 15.3 16.8 100 0.0 NNW 20 24 11 13 1006.2 1004.5 11.8
03/11:05pm 16.9 15.1 16.9 100 0.0 NNW 22 26 12 14 1006.2 1004.5 11.8
03/11:00pm 16.9 15.0 16.7 99 0.1 NNW 22 28 12 15 1006.3 1004.6 11.8
03/10:30pm 17.1 14.5 16.9 99 0.1 NNW 26 39 14 21 1006.6 1004.9 11.8
03/10:00pm 17.2 15.5 17.2 100 0.0 NNW 22 30 12 16 1006.5 1004.8 11.8
03/09:57pm 17.2 15.1 17.2 100 0.0 NNW 24 33 13 18 1006.4 1004.7 11.8
03/09:47pm 17.2 15.1 17.2 100 0.0 NNW 24 33 13 18 1006.4 1004.7 11.8
03/09:31pm 17.1 15.7 17.1 100 0.0 N 20 30 11 16 1006.3 1004.6 11.8
03/09:30pm 17.0 15.6 17.0 100 0.0 N 20 30 11 16 1006.4 1004.7 11.8
03/09:08pm 16.8 15.5 16.8 100 0.0 NNW 19 24 10 13 1006.3 1004.6 11.8
03/09:00pm 16.9 15.1 16.9 100 0.0 N 22 28 12 15 1006.4 1004.7 11.8
03/08:41pm 17.1 15.0 17.1 100 0.0 N 24 30 13 16 1006.2 1004.5 11.8
03/08:30pm 16.8 14.9 16.8 100 0.0 N 22 28 12 15 1006.2 1004.5 11.8
03/08:00pm 16.7 14.8 16.7 100 0.0 N 22 26 12 14 1006.3 1004.6 11.8
03/07:30pm 16.4 14.8 16.4 100 0.0 N 20 26 11 14 1006.3 1004.6 11.8
03/07:11pm 16.4 14.4 16.4 100 0.0 N 22 32 12 17 1006.4 1004.7 11.8
03/07:00pm 16.4 14.4 16.4 100 0.0 N 22 30 12 16 1006.5 1004.8 11.8
03/06:53pm 16.5 14.5 16.5 100 0.0 N 22 30 12 16 1006.4 1004.7 11.8
03/06:30pm 16.4 14.4 16.4 100 0.0 N 22 28 12 15 1006.2 1004.5 11.6
03/06:00pm 16.1 13.2 16.1 100 0.0 N 26 35 14 19 1006.4 1004.7 11.4
03/05:30pm 16.6 13.5 16.6 100 0.0 N 28 33 15 18 1006.4 1004.7 10.6
03/05:27pm 16.5 13.8 16.5 100 0.0 N 26 33 14 18 1006.3 1004.6 10.4
03/05:10pm 16.6 13.5 16.6 100 0.0 NNE 28 37 15 20 1006.4 1004.7 10.4
03/05:00pm 16.7 14.8 16.7 100 0.0 NNE 22 33 12 18 1006.4 1004.7 10.0
03/04:30pm 16.4 15.7 16.4 100 0.0 NE 15 19 8 10 1006.9 1005.2 9.2
03/04:00pm 16.5 17.0 16.5 100 0.0 ENE 9 11 5 6 1007.5 1005.8 8.0
03/03:45pm 16.2 16.9 16.2 100 0.0 NE 7 9 4 5 1007.7 1006.0 8.0
03/03:30pm 16.3 16.7 16.3 100 0.0 NE 9 9 5 5 1008.1 1006.5 7.2
03/03:06pm 16.5 17.0 16.5 100 0.0 WNW 9 13 5 7 1008.6 1007.0 3.4
03/03:00pm 16.7 17.6 16.7 100 0.0 NNW 7 13 4 7 1008.7 1007.1 2.6
03/02:30pm 16.7 16.1 16.7 100 0.0 ENE 15 19 8 10 1008.4 1006.8 1.6
03/02:00pm 17.2 17.1 17.0 99 0.1 N 13 15 7 8 1010.0 1008.4 0.6
03/01:30pm 17.6 17.2 16.3 92 0.8 N 13 17 7 9 1010.6 1009.0 0.0
03/01:23pm 17.7 17.3 16.2 91 0.9 NNE 13 17 7 9 1010.7 1009.1 0.0
03/01:09pm 18.2 17.7 16.0 87 1.3 NNE 13 19 7 10 1010.9 1009.3 0.0
03/01:00pm 18.7 18.7 16.3 86 1.5 NNE 11 17 6 9 1011.0 1009.4 0.0
03/12:30pm 18.2 18.6 16.2 88 1.2 N 9 11 5 6 1011.5 1009.9 0.0
03/12:00pm 17.4 17.8 16.4 94 0.6 N 9 11 5 6 1012.3 1010.7 0.0
03/11:30am 17.2 17.1 16.1 93 0.7 N 11 15 6 8 1012.6 1011.0 0.0
03/11:00am 17.0 16.4 16.7 98 0.2 N 15 20 8 11 1012.9 1011.4 0.0
03/10:30am 17.0 17.2 16.8 99 0.1 N 11 13 6 7 1012.9 1011.4 0.0
03/10:00am 16.5 16.6 16.5 100 0.0 N 11 13 6 7 1012.6 1011.0 0.0
03/09:37am 16.6 16.7 16.6 100 0.0 N 11 15 6 8 1012.7 1011.1 0.0
03/09:30am 16.5 16.6 16.5 100 0.0 N 11 15 6 8 1012.6 1011.0 0.0
03/09:00am 16.4 16.1 16.4 100 0.0 NNW 13 17 7 9 1012.7 1011.1 6.4
03/08:55am 16.5 16.6 16.5 100 0.0 NNW 11 17 6 9 1012.6 1011.0 6.4
03/08:30am 15.6 15.4 15.6 100 0.0 N 11 13 6 7 1012.4 1010.8 6.4
03/08:00am 14.8 14.6 14.8 100 0.0 NNE 9 11 5 6 1012.3 1010.7 6.4
03/07:30am 14.7 13.7 14.7 100 0.0 N 13 15 7 8 1012.4 1010.8 6.4
03/07:25am 14.6 13.6 14.6 100 0.0 N 13 15 7 8 1012.4 1010.8 6.4
03/07:02am 14.6 13.6 14.6 100 0.0 N 13 13 7 7 1012.3 1010.7 6.4
03/07:00am 14.6 13.6 14.6 100 0.0 N 13 13 7 7 1012.3 1010.7 6.4
03/06:57am 14.5 13.5 14.5 100 0.0 N 13 13 7 7 1012.3 1010.7 6.4

Other formats

Comma delimited format used in spreadsheet applications
http://www.bom.gov.au/fwo/IDN60801/IDN60801.94729.axf

JavaScript Object Notation format (JSON) in row-major order
http://www.bom.gov.au/fwo/IDN60801/IDN60801.94729.json

Data quality

Most of these data are generated automatically and are frequently updated. Quality checks on data are not normally performed. It is possible for incorrect values to appear. Refer to information at About Latest Weather Observations and please check the disclaimer before using these data.